Time;durP1;ratioP1;P1;durP2;ratioP2;P2;SDS_P1;SDS_P2;PMS_P1;PMS_P2;Temp;Humidity;BMP_temperature;BMP_pressure;BME280_temperature;BME280_humidity;BME280_pressure;Samples;Min_cycle;Max_cycle;Signal;HPM_P1;HPM_P2
2022/10/16 00:01:35;;;;;;;8.33;7.00;;;13.40;37.70;;;;;;5054080;28;20376;-70
2022/10/16 00:04:02;;;;;;;10.07;8.53;;;13.40;41.30;;;;;;5053320;28;20202;-70
2022/10/16 00:06:29;;;;;;;7.60;6.40;;;13.30;39.70;;;;;;5073770;28;20420;-74
2022/10/16 00:08:55;;;;;;;9.00;7.33;;;13.30;47.10;;;;;;5072581;28;20421;-70
2022/10/16 00:11:24;;;;;;;13.83;8.97;;;13.30;41.30;;;;;;5073846;28;20404;-70
2022/10/16 00:13:54;;;;;;;12.10;8.20;;;13.30;39.80;;;;;;5072851;28;20547;-75
2022/10/16 00:16:20;;;;;;;11.40;7.73;;;13.30;43.00;;;;;;5073611;28;20447;-70
2022/10/16 00:18:46;;;;;;;14.80;7.70;;;13.30;46.90;;;;;;5071996;28;20848;-70
2022/10/16 00:21:15;;;;;;;8.50;7.60;;;13.30;43.20;;;;;;5073735;28;20186;-76
2022/10/16 00:23:41;;;;;;;7.07;6.37;;;13.20;36.60;;;;;;5073086;28;20909;-70
2022/10/16 00:26:12;;;;;;;14.50;7.83;;;13.10;33.80;;;;;;5073742;28;20405;-70
2022/10/16 00:28:38;;;;;;;13.60;7.40;;;13.20;36.60;;;;;;5073708;28;20389;-75
2022/10/16 00:31:10;;;;;;;12.83;7.30;;;13.20;36.90;;;;;;5073669;28;20425;-75
2022/10/16 00:33:37;;;;;;;10.83;7.20;;;13.10;37.60;;;;;;5070509;28;20415;-78
2022/10/16 00:36:04;;;;;;;12.33;7.83;;;13.10;35.20;;;;;;5053445;28;20413;-70
2022/10/16 00:38:30;;;;;;;10.23;7.33;;;13.10;36.40;;;;;;5053557;28;20492;-70
2022/10/16 00:40:56;;;;;;;12.23;7.40;;;13.10;36.00;;;;;;5053378;28;20791;-76
2022/10/16 00:43:42;;;;;;;14.20;7.53;;;13.10;37.90;;;;;;5053399;28;20401;-72
2022/10/16 00:46:34;;;;;;;9.40;6.00;;;13.10;38.40;;;;;;5053319;28;20413;-70
2022/10/16 00:49:01;;;;;;;8.70;6.27;;;13.00;35.40;;;;;;5059571;28;20432;-71
2022/10/16 00:51:43;;;;;;;11.07;6.30;;;13.00;35.20;;;;;;5073032;28;20739;-70
2022/10/16 00:54:13;;;;;;;19.10;7.70;;;13.00;33.90;;;;;;5071150;28;20426;-75
2022/10/16 00:56:40;;;;;;;10.93;6.67;;;13.00;32.70;;;;;;5073195;28;20425;-76
2022/10/16 00:59:15;;;;;;;9.07;6.77;;;12.90;35.00;;;;;;5073393;28;20403;-76
2022/10/16 01:01:40;;;;;;;10.10;5.77;;;12.90;34.40;;;;;;5072476;28;20398;-75
2022/10/16 01:04:06;;;;;;;11.10;7.00;;;13.00;35.00;;;;;;5072346;28;20437;-76
2022/10/16 01:06:50;;;;;;;11.83;6.43;;;12.90;34.50;;;;;;5072745;28;20192;-76
2022/10/16 01:09:30;;;;;;;8.03;6.33;;;12.90;34.10;;;;;;5073166;28;20255;-70
2022/10/16 01:12:01;;;;;;;11.40;6.70;;;12.90;33.50;;;;;;5073320;28;20434;-70
2022/10/16 01:14:30;;;;;;;8.97;6.53;;;12.90;36.40;;;;;;5072195;28;20423;-71
2022/10/16 01:17:20;;;;;;;11.40;6.30;;;13.00;31.40;;;;;;5055211;28;20544;-71
2022/10/16 01:20:10;;;;;;;10.27;6.47;;;12.90;33.60;;;;;;5052640;28;20426;-75
2022/10/16 01:23:10;;;;;;;7.60;6.73;;;12.90;30.00;;;;;;5053136;28;20384;-70
2022/10/16 01:25:53;;;;;;;9.70;5.50;;;13.00;34.50;;;;;;5035392;28;20408;-74
2022/10/16 01:28:24;;;;;;;7.00;5.07;;;13.00;33.30;;;;;;5053245;28;20421;-75
2022/10/16 01:30:56;;;;;;;11.13;6.00;;;13.00;26.70;;;;;;5053266;28;20833;-76
2022/10/16 01:33:28;;;;;;;7.93;6.10;;;13.00;32.10;;;;;;5056509;28;20509;-75
2022/10/16 01:35:58;;;;;;;8.00;6.43;;;13.00;23.10;;;;;;5056223;28;20490;-71
2022/10/16 01:38:34;;;;;;;7.60;6.03;;;13.00;22.90;;;;;;5056752;28;20841;-75
2022/10/16 01:41:24;;;;;;;8.03;6.63;;;13.00;34.70;;;;;;5071948;28;20405;-72
2022/10/16 01:44:02;;;;;;;8.30;5.13;;;13.00;31.40;;;;;;5054534;28;20413;-76
2022/10/16 01:46:30;;;;;;;14.67;6.00;;;13.00;24.20;;;;;;5056586;28;20391;-74
2022/10/16 01:48:57;;;;;;;12.97;7.00;;;13.00;20.60;;;;;;5056624;28;20411;-75
2022/10/16 01:51:24;;;;;;;9.90;6.97;;;13.00;20.20;;;;;;5056491;28;20393;-74
2022/10/16 01:53:54;;;;;;;10.93;6.43;;;13.00;24.70;;;;;;5055536;28;20453;-70
2022/10/16 01:56:22;;;;;;;6.67;5.30;;;13.00;23.70;;;;;;5061376;28;20882;-71
2022/10/16 01:59:05;;;;;;;13.23;6.37;;;13.00;21.20;;;;;;5056014;28;20702;-71
2022/10/16 02:01:34;;;;;;;7.90;6.33;;;13.00;19.70;;;;;;5056286;28;20389;-70
2022/10/16 02:04:15;;;;;;;11.00;6.43;;;13.00;12.60;;;;;;5055374;28;20911;-76
2022/10/16 02:06:41;;;;;;;10.07;6.73;;;13.00;22.40;;;;;;5056188;28;20796;-76
2022/10/16 02:09:06;;;;;;;8.30;6.70;;;13.00;18.30;;;;;;5056312;28;20405;-71
2022/10/16 02:11:32;;;;;;;8.33;6.20;;;13.00;19.40;;;;;;5073937;28;20650;-72
2022/10/16 02:14:04;;;;;;;8.63;6.03;;;13.00;19.90;;;;;;5075200;28;20205;-75
2022/10/16 02:16:59;;;;;;;9.20;6.67;;;13.00;22.10;;;;;;5075988;28;20190;-76
2022/10/16 02:19:25;;;;;;;9.40;6.37;;;13.00;15.60;;;;;;5062508;28;20423;-75
2022/10/16 02:21:56;;;;;;;10.50;7.13;;;13.00;16.80;;;;;;5076039;28;20408;-76
2022/10/16 02:24:46;;;;;;;12.20;6.70;;;13.00;14.50;;;;;;5056636;28;20183;-76
2022/10/16 02:27:17;;;;;;;17.17;8.03;;;13.00;17.80;;;;;;5056075;28;20372;-75
2022/10/16 02:29:52;;;;;;;8.60;5.93;;;13.00;15.70;;;;;;5055882;28;20459;-77
2022/10/16 02:32:23;;;;;;;7.93;7.13;;;13.00;14.40;;;;;;5055800;28;20460;-74
2022/10/16 02:34:50;;;;;;;10.13;6.97;;;13.00;12.40;;;;;;5055047;28;20878;-70
2022/10/16 02:37:17;;;;;;;13.40;6.97;;;13.00;5.60;;;;;;5055375;28;20434;-72
2022/10/16 02:39:43;;;;;;;15.10;6.30;;;13.00;5.30;;;;;;5055670;28;20750;-70
2022/10/16 02:42:13;;;;;;;12.83;7.30;;;13.00;10.80;;;;;;5055370;28;20415;-76
2022/10/16 02:44:39;;;;;;;9.20;5.17;;;13.00;13.70;;;;;;5054745;28;20236;-71
2022/10/16 02:47:05;;;;;;;11.20;5.20;;;13.00;9.80;;;;;;5054182;28;20437;-76
2022/10/16 02:49:30;;;;;;;10.17;6.10;;;13.00;2.90;;;;;;5055547;28;20626;-76
2022/10/16 02:51:56;;;;;;;9.10;6.57;;;13.00;1.00;;;;;;5055710;28;20189;-72
2022/10/16 02:54:22;;;;;;;8.50;6.30;;;13.00;1.00;;;;;;5074107;28;20201;-70
2022/10/16 02:56:47;;;;;;;9.40;5.80;;;13.00;1.00;;;;;;5075427;28;20323;-76
2022/10/16 02:59:13;;;;;;;9.50;5.90;;;12.90;1.00;;;;;;5075445;28;20166;-70
2022/10/16 03:01:39;;;;;;;7.70;5.60;;;12.90;1.00;;;;;;5075287;28;20166;-70
2022/10/16 03:04:04;;;;;;;11.13;6.57;;;12.80;1.00;;;;;;5074152;28;20182;-75
2022/10/16 03:06:30;;;;;;;8.80;5.77;;;12.80;1.00;;;;;;5074022;28;20663;-76
2022/10/16 03:08:55;;;;;;;12.90;7.03;;;12.80;1.00;;;;;;5075215;28;20523;-76
2022/10/16 03:11:21;;;;;;;7.90;5.97;;;12.80;1.00;;;;;;5075052;28;20198;-71
2022/10/16 03:13:47;;;;;;;7.27;5.47;;;12.80;1.00;;;;;;5073806;28;20190;-76
2022/10/16 03:16:13;;;;;;;6.80;4.87;;;12.80;1.00;;;;;;5074743;28;20197;-75
2022/10/16 03:18:38;;;;;;;8.80;5.80;;;12.80;1.00;;;;;;5075131;28;20509;-69
2022/10/16 03:21:04;;;;;;;10.63;4.90;;;12.80;1.00;;;;;;5072874;28;20493;-76
2022/10/16 03:23:30;;;;;;;7.13;4.93;;;12.80;1.00;;;;;;5074623;28;20177;-75
2022/10/16 03:25:55;;;;;;;9.00;4.80;;;12.70;1.00;;;;;;5074050;28;20198;-76
2022/10/16 03:28:21;;;;;;;8.07;5.20;;;12.70;1.00;;;;;;5074600;28;20224;-71
2022/10/16 03:30:47;;;;;;;8.60;4.70;;;12.70;1.00;;;;;;5074432;28;20262;-70
2022/10/16 03:33:12;;;;;;;4.80;3.70;;;12.70;1.00;;;;;;5072215;28;20194;-76
2022/10/16 03:35:38;;;;;;;4.53;4.10;;;12.60;1.00;;;;;;5053635;28;20201;-69
2022/10/16 03:38:04;;;;;;;6.07;4.20;;;12.60;1.00;;;;;;5054597;28;20174;-75
2022/10/16 03:40:31;;;;;;;4.30;3.70;;;12.60;1.00;;;;;;5054548;28;20175;-70
2022/10/16 03:43:01;;;;;;;7.80;3.97;;;12.60;1.00;;;;;;5054592;28;20628;-71
2022/10/16 03:45:27;;;;;;;6.00;4.23;;;12.60;1.00;;;;;;5053534;28;20811;-69
2022/10/16 03:47:53;;;;;;;8.20;3.50;;;12.60;1.00;;;;;;5054703;28;20755;-75
2022/10/16 03:50:18;;;;;;;2.70;2.50;;;12.60;1.00;;;;;;5074189;28;20404;-71
2022/10/16 03:52:44;;;;;;;5.00;3.60;;;12.60;1.00;;;;;;5074206;28;20201;-75
2022/10/16 03:55:09;;;;;;;4.03;3.73;;;12.60;1.00;;;;;;5072675;28;20182;-70
2022/10/16 03:57:35;;;;;;;5.93;3.60;;;12.60;1.00;;;;;;5074224;28;20166;-71
2022/10/16 04:00:01;;;;;;;7.63;3.67;;;12.50;1.00;;;;;;5074296;28;20170;-75
2022/10/16 04:02:26;;;;;;;3.20;2.90;;;12.60;1.00;;;;;;5072454;28;20213;-75
2022/10/16 04:04:52;;;;;;;4.37;3.40;;;12.60;1.00;;;;;;5072742;28;20162;-76
2022/10/16 04:07:18;;;;;;;6.50;5.90;;;12.50;1.00;;;;;;5074059;28;20223;-75
2022/10/16 04:09:44;;;;;;;4.83;3.17;;;12.50;1.00;;;;;;5072761;28;20519;-70
2022/10/16 04:12:10;;;;;;;5.40;3.90;;;12.50;1.00;;;;;;5073906;28;20429;-74
2022/10/16 04:14:35;;;;;;;6.60;2.77;;;12.50;1.00;;;;;;5072829;28;20451;-75
2022/10/16 04:17:01;;;;;;;3.83;2.73;;;12.50;1.00;;;;;;5073769;28;20623;-70
2022/10/16 04:19:26;;;;;;;4.13;3.20;;;12.50;1.00;;;;;;5073568;28;20162;-75
2022/10/16 04:21:52;;;;;;;8.93;3.37;;;12.50;1.00;;;;;;5073683;28;20170;-71
2022/10/16 04:24:18;;;;;;;3.27;3.00;;;12.50;1.00;;;;;;5072807;28;20174;-71
2022/10/16 04:26:43;;;;;;;7.10;2.87;;;12.50;1.00;;;;;;5072905;28;20536;-71
2022/10/16 04:29:09;;;;;;;5.30;2.80;;;12.40;1.00;;;;;;5072548;28;20182;-75
2022/10/16 04:31:35;;;;;;;3.53;3.23;;;12.40;1.00;;;;;;5073947;28;20174;-70
2022/10/16 04:34:00;;;;;;;3.90;2.43;;;12.40;1.00;;;;;;5072718;28;20554;-75
2022/10/16 04:36:26;;;;;;;3.30;2.70;;;12.40;1.00;;;;;;5073089;28;20276;-76
2022/10/16 04:38:51;;;;;;;5.63;3.30;;;12.30;1.00;;;;;;5072623;28;20206;-70
2022/10/16 04:41:17;;;;;;;2.77;2.57;;;12.30;1.00;;;;;;5073606;28;20173;-76
2022/10/16 04:43:43;;;;;;;2.60;2.40;;;12.30;1.00;;;;;;5071320;28;20170;-70
2022/10/16 04:46:09;;;;;;;4.43;3.00;;;12.30;1.00;;;;;;5057039;28;20230;-70
2022/10/16 04:48:35;;;;;;;3.30;2.77;;;12.40;1.00;;;;;;5053354;28;20179;-76
2022/10/16 04:51:01;;;;;;;5.63;2.33;;;12.40;1.00;;;;;;5053360;28;20406;-76
2022/10/16 04:53:26;;;;;;;6.80;2.30;;;12.40;1.00;;;;;;5052976;28;20281;-71
2022/10/16 04:55:52;;;;;;;9.53;2.93;;;12.40;1.00;;;;;;5052311;28;20309;-71
2022/10/16 04:58:18;;;;;;;3.83;2.60;;;12.40;1.00;;;;;;5063100;28;20185;-75
2022/10/16 05:00:44;;;;;;;2.67;2.10;;;12.40;1.00;;;;;;5073286;28;20511;-70
2022/10/16 05:03:10;;;;;;;2.40;2.20;;;12.40;1.00;;;;;;5088755;28;20194;-75
2022/10/16 05:05:36;;;;;;;4.20;2.17;;;12.50;1.00;;;;;;5073962;28;20503;-75
2022/10/16 05:08:02;;;;;;;6.37;2.77;;;12.50;1.00;;;;;;5076420;28;20177;-75
2022/10/16 05:10:28;;;;;;;4.57;2.30;;;12.50;1.00;;;;;;5077431;28;20450;-76
2022/10/16 05:12:54;;;;;;;4.83;2.13;;;12.50;1.00;;;;;;5075737;28;20430;-75
2022/10/16 05:15:19;;;;;;;2.70;2.50;;;12.50;1.00;;;;;;5076146;28;20459;-75
2022/10/16 05:17:45;;;;;;;6.30;2.60;;;12.50;1.00;;;;;;5077215;28;20174;-76
2022/10/16 05:20:13;;;;;;;2.70;2.03;;;12.50;1.00;;;;;;5077279;28;20208;-75
2022/10/16 05:22:38;;;;;;;2.93;2.73;;;12.50;1.00;;;;;;5077222;28;20247;-76
2022/10/16 05:25:05;;;;;;;4.57;2.63;;;12.50;1.00;;;;;;5074074;28;20895;-73
2022/10/16 05:27:30;;;;;;;2.80;1.97;;;12.50;1.00;;;;;;5077115;28;20193;-70
2022/10/16 05:29:56;;;;;;;4.87;2.67;;;12.50;1.00;;;;;;5075376;28;20432;-73
2022/10/16 05:32:21;;;;;;;2.50;2.17;;;12.50;1.00;;;;;;5075906;28;20216;-76
2022/10/16 05:34:47;;;;;;;4.17;2.83;;;12.50;1.00;;;;;;5076209;28;20239;-76
2022/10/16 05:37:13;;;;;;;9.73;5.20;;;12.50;1.00;;;;;;5076938;28;20166;-72
2022/10/16 05:39:39;;;;;;;3.53;2.30;;;12.50;1.00;;;;;;5075689;28;20193;-71
2022/10/16 05:42:05;;;;;;;3.37;1.93;;;12.50;1.00;;;;;;5075407;28;20178;-71
2022/10/16 05:44:31;;;;;;;2.50;2.30;;;12.50;1.00;;;;;;5074426;28;20409;-75
2022/10/16 05:46:57;;;;;;;2.90;2.60;;;12.50;1.00;;;;;;5059276;28;20951;-76
2022/10/16 05:49:22;;;;;;;2.50;2.30;;;12.60;1.00;;;;;;5056519;28;20467;-76
2022/10/16 05:51:48;;;;;;;2.67;2.03;;;12.60;1.00;;;;;;5056649;28;20170;-70
2022/10/16 05:54:14;;;;;;;2.33;2.00;;;12.60;1.00;;;;;;5064214;28;20210;-76
2022/10/16 05:56:39;;;;;;;2.60;1.90;;;12.50;1.00;;;;;;5065306;28;20198;-76
2022/10/16 05:59:05;;;;;;;3.40;2.50;;;12.50;1.00;;;;;;5070320;28;20483;-75
2022/10/16 06:01:31;;;;;;;3.30;2.67;;;12.60;1.00;;;;;;5076346;28;20194;-75
2022/10/16 06:03:57;;;;;;;3.90;2.60;;;12.60;1.00;;;;;;5074160;28;20981;-75
2022/10/16 06:06:26;;;;;;;4.23;2.57;;;12.60;1.00;;;;;;5075792;28;20686;-75
2022/10/16 06:08:54;;;;;;;2.03;1.93;;;12.50;1.00;;;;;;5074889;28;20383;-70
2022/10/16 06:11:23;;;;;;;2.40;2.20;;;12.50;1.00;;;;;;5076145;28;20766;-70
2022/10/16 06:13:56;;;;;;;4.57;2.53;;;12.60;1.00;;;;;;5075244;28;20513;-76
2022/10/16 06:16:23;;;;;;;2.40;2.20;;;12.60;1.00;;;;;;5076161;28;20391;-70
2022/10/16 06:18:51;;;;;;;6.40;3.00;;;12.70;1.00;;;;;;5070460;28;20399;-71
2022/10/16 06:21:24;;;;;;;2.27;1.80;;;12.70;1.00;;;;;;5056034;28;20413;-75
2022/10/16 06:23:50;;;;;;;2.23;2.03;;;12.70;1.00;;;;;;5070054;28;20486;-71
2022/10/16 06:26:19;;;;;;;4.03;2.40;;;12.70;1.00;;;;;;5055955;28;20429;-70
2022/10/16 06:28:45;;;;;;;3.17;2.20;;;12.70;1.00;;;;;;5056093;28;20177;-71
2022/10/16 06:31:12;;;;;;;3.40;1.90;;;12.80;1.00;;;;;;5055751;28;20413;-70
2022/10/16 06:33:38;;;;;;;2.20;2.00;;;12.80;1.00;;;;;;5054578;28;20269;-78
2022/10/16 06:36:08;;;;;;;4.60;2.20;;;12.80;1.00;;;;;;5055803;28;20404;-72
2022/10/16 06:38:34;;;;;;;3.43;2.80;;;12.80;1.00;;;;;;5055795;28;20402;-70
2022/10/16 06:40:59;;;;;;;2.37;2.17;;;12.80;1.00;;;;;;5055839;28;20740;-75
2022/10/16 06:43:26;;;;;;;2.63;2.10;;;12.80;1.00;;;;;;5054883;28;20463;-79
2022/10/16 06:45:56;;;;;;;7.30;2.10;;;12.90;1.00;;;;;;5054778;28;20431;-76
2022/10/16 06:48:23;;;;;;;3.60;1.93;;;12.90;1.00;;;;;;5054303;28;20461;-71
2022/10/16 06:51:12;;;;;;;5.50;2.07;;;13.00;1.00;;;;;;5062017;28;20432;-75
2022/10/16 06:53:40;;;;;;;5.67;2.20;;;13.00;1.00;;;;;;5054421;28;20510;-77
2022/10/16 06:56:13;;;;;;;4.60;2.03;;;13.00;1.00;;;;;;5055118;28;20556;-72
2022/10/16 06:58:40;;;;;;;3.00;2.80;;;13.00;1.00;;;;;;5055390;28;20372;-77
2022/10/16 07:01:06;;;;;;;2.50;2.00;;;13.00;1.00;;;;;;5055353;28;20496;-73
2022/10/16 07:03:32;;;;;;;2.67;2.20;;;13.10;1.00;;;;;;5055003;28;20482;-72
2022/10/16 07:06:03;;;;;;;4.87;1.90;;;13.10;1.00;;;;;;5054456;28;20469;-72
2022/10/16 07:08:34;;;;;;;6.60;2.23;;;13.00;1.00;;;;;;5055247;28;20405;-77
2022/10/16 07:11:05;;;;;;;2.20;2.00;;;13.10;1.00;;;;;;5055187;28;20402;-76
2022/10/16 07:13:33;;;;;;;2.67;2.47;;;13.10;1.00;;;;;;5054588;28;20461;-72
2022/10/16 07:16:11;;;;;;;3.07;2.20;;;13.10;1.00;;;;;;5054000;28;20528;-76
2022/10/16 07:18:39;;;;;;;3.70;2.50;;;13.20;1.00;;;;;;5054868;28;20433;-72
2022/10/16 07:21:12;;;;;;;3.47;2.50;;;13.20;1.00;;;;;;5054771;28;20438;-75
2022/10/16 07:23:38;;;;;;;3.20;2.40;;;13.20;1.00;;;;;;5053956;28;21273;-73
2022/10/16 07:26:05;;;;;;;4.13;2.20;;;13.20;1.00;;;;;;5054592;28;20399;-70
2022/10/16 07:28:31;;;;;;;6.13;2.67;;;13.30;1.00;;;;;;5069000;28;20207;-71
2022/10/16 07:31:10;;;;;;;4.13;2.30;;;13.40;1.00;;;;;;5070006;28;20441;-71
2022/10/16 07:33:37;;;;;;;5.87;2.63;;;13.50;1.00;;;;;;5054167;28;20514;-77
2022/10/16 07:36:03;;;;;;;6.37;2.57;;;13.50;1.00;;;;;;5054606;28;20413;-75
2022/10/16 07:38:29;;;;;;;2.43;2.23;;;13.60;1.00;;;;;;5054136;28;20424;-76
2022/10/16 07:41:03;;;;;;;4.20;2.70;;;13.50;99.90;;;;;;5054778;28;20390;-76
2022/10/16 07:43:29;;;;;;;4.17;2.40;;;13.60;99.90;;;;;;5054846;28;20187;-72
2022/10/16 07:45:55;;;;;;;5.90;2.40;;;13.60;99.90;;;;;;5069481;28;20441;-72
2022/10/16 07:48:22;;;;;;;2.47;2.27;;;13.50;99.90;;;;;;5054417;28;20732;-70
2022/10/16 07:50:48;;;;;;;3.43;2.20;;;13.50;99.90;;;;;;5054515;28;20737;-76
2022/10/16 07:53:14;;;;;;;2.57;2.30;;;13.60;99.90;;;;;;5054300;28;20502;-71
2022/10/16 07:55:40;;;;;;;3.77;1.90;;;13.60;99.90;;;;;;5052896;28;20286;-72
2022/10/16 07:58:06;;;;;;;3.60;3.30;;;13.70;99.90;;;;;;5054184;28;20535;-71
2022/10/16 08:00:32;;;;;;;4.20;3.07;;;13.70;99.90;;;;;;5054088;28;20488;-75
2022/10/16 08:03:01;;;;;;;6.07;2.67;;;13.70;99.90;;;;;;5054117;28;20435;-71
2022/10/16 08:05:32;;;;;;;3.87;2.73;;;13.80;99.90;;;;;;5051917;28;20771;-75
2022/10/16 08:07:58;;;;;;;5.40;2.67;;;13.90;99.90;;;;;;5059758;28;20420;-75
2022/10/16 08:10:26;;;;;;;3.30;3.00;;;14.00;99.90;;;;;;5073859;28;21164;-75
2022/10/16 08:12:52;;;;;;;4.40;2.97;;;14.00;99.90;;;;;;5074038;28;20293;-70
2022/10/16 08:15:18;;;;;;;3.03;2.73;;;13.90;99.90;;;;;;5061663;28;20480;-75
2022/10/16 08:17:44;;;;;;;3.47;2.70;;;14.00;99.90;;;;;;5052526;28;20413;-74
2022/10/16 08:20:10;;;;;;;3.97;3.30;;;14.00;99.90;;;;;;5053786;28;20410;-76
2022/10/16 08:22:36;;;;;;;2.70;2.50;;;14.10;99.90;;;;;;5069088;28;20413;-74
2022/10/16 08:25:02;;;;;;;5.57;2.97;;;14.20;99.90;;;;;;5052751;28;20394;-71
2022/10/16 08:27:32;;;;;;;4.47;2.93;;;14.30;99.90;;;;;;5052689;28;20171;-71
2022/10/16 08:29:58;;;;;;;4.23;3.50;;;14.40;99.90;;;;;;5063040;28;20421;-70
2022/10/16 08:32:23;;;;;;;4.10;2.80;;;14.50;99.90;;;;;;5072351;28;20507;-75
2022/10/16 08:34:49;;;;;;;3.70;3.40;;;14.60;99.90;;;;;;5072071;28;20162;-71
2022/10/16 08:37:15;;;;;;;5.13;3.00;;;14.70;99.90;;;;;;5055386;28;20517;-70
2022/10/16 08:39:40;;;;;;;4.33;3.40;;;14.70;99.90;;;;;;5052335;28;20167;-75
2022/10/16 08:42:09;;;;;;;8.97;4.27;;;14.80;99.90;;;;;;5053520;28;20162;-75
2022/10/16 08:44:57;;;;;;;3.50;3.07;;;14.90;99.90;;;;;;5052541;28;20170;-71
2022/10/16 08:47:33;;;;;;;4.33;3.43;;;15.00;99.90;;;;;;5060933;28;20384;-75
2022/10/16 08:50:07;;;;;;;5.40;3.20;;;15.00;99.90;;;;;;5053247;28;20401;-76
2022/10/16 08:52:38;;;;;;;4.03;3.17;;;15.00;99.90;;;;;;5053285;28;20432;-72
2022/10/16 08:55:04;;;;;;;4.10;3.10;;;15.10;99.90;;;;;;5067467;28;20416;-71
2022/10/16 08:57:32;;;;;;;4.07;3.57;;;15.20;99.90;;;;;;5053370;28;20746;-71
2022/10/16 09:00:04;;;;;;;5.20;3.27;;;15.30;99.90;;;;;;5053299;28;20405;-75
2022/10/16 09:03:03;;;;;;;3.63;3.33;;;15.40;99.90;;;;;;5053164;28;20893;-74
2022/10/16 09:05:57;;;;;;;4.57;3.27;;;15.40;99.90;;;;;;5052124;28;20416;-74
2022/10/16 09:08:47;;;;;;;6.60;4.40;;;15.50;99.90;;;;;;5053126;28;20413;-75
2022/10/16 09:11:33;;;;;;;6.70;3.13;;;15.90;99.90;;;;;;5052766;28;20778;-75
2022/10/16 09:14:36;;;;;;;6.23;3.83;;;16.10;99.90;;;;;;5052187;28;20869;-75
2022/10/16 09:17:29;;;;;;;9.30;3.50;;;16.30;99.90;;;;;;5052940;28;20428;-74
2022/10/16 09:20:30;;;;;;;5.70;4.17;;;16.50;99.90;;;;;;5056655;28;20428;-74
2022/10/16 09:23:34;;;;;;;6.10;3.53;;;16.50;99.90;;;;;;5069903;28;20432;-71
2022/10/16 09:26:00;;;;;;;8.73;3.93;;;16.60;99.90;;;;;;5071981;28;20515;-71
2022/10/16 09:28:26;;;;;;;6.47;3.43;;;16.40;99.90;;;;;;5072959;28;20404;-74
2022/10/16 09:30:52;;;;;;;7.73;3.80;;;16.40;99.90;;;;;;5052900;28;20444;-73
2022/10/16 09:33:21;;;;;;;4.13;2.80;;;16.30;99.90;;;;;;5056666;28;20197;-74
2022/10/16 09:35:58;;;;;;;6.17;2.70;;;16.30;99.90;;;;;;5072231;28;20451;-70
2022/10/16 09:38:31;;;;;;;4.30;2.97;;;16.40;99.90;;;;;;5073074;28;20412;-72
2022/10/16 09:41:00;;;;;;;6.53;3.00;;;16.60;99.90;;;;;;5071765;28;20409;-73
2022/10/16 09:43:31;;;;;;;5.47;3.23;;;16.70;99.90;;;;;;5072485;28;20495;-76
2022/10/16 09:46:08;;;;;;;4.90;2.37;;;16.90;99.90;;;;;;5071642;28;20473;-75
2022/10/16 09:48:42;;;;;;;3.60;2.80;;;17.10;78.50;;;;;;5063542;28;20574;-71
2022/10/16 09:51:24;;;;;;;5.20;2.67;;;17.30;69.70;;;;;;5052806;28;20442;-74
2022/10/16 09:54:01;;;;;;;4.00;2.73;;;17.40;37.20;;;;;;5066043;28;20456;-74
2022/10/16 09:56:29;;;;;;;5.13;2.67;;;17.20;30.90;;;;;;5056536;28;20413;-74
2022/10/16 09:58:57;;;;;;;7.23;3.37;;;17.10;26.80;;;;;;5057391;28;20404;-74
2022/10/16 10:01:38;;;;;;;7.07;3.10;;;16.90;48.40;;;;;;5075226;28;20424;-69
2022/10/16 10:04:04;;;;;;;4.70;2.70;;;16.80;48.80;;;;;;5075129;28;20456;-69
2022/10/16 10:06:34;;;;;;;6.80;3.70;;;16.70;41.90;;;;;;5065140;28;20948;-71
2022/10/16 10:09:21;;;;;;;7.63;3.57;;;16.60;43.30;;;;;;5057077;28;20727;-74
2022/10/16 10:11:48;;;;;;;5.43;3.57;;;16.70;56.90;;;;;;5076429;28;20401;-73
2022/10/16 10:14:28;;;;;;;5.00;3.40;;;16.50;39.10;;;;;;5074853;28;20448;-74
2022/10/16 10:17:06;;;;;;;3.60;3.23;;;16.30;47.60;;;;;;5076060;28;20435;-70
2022/10/16 10:20:15;;;;;;;4.60;3.10;;;16.30;63.50;;;;;;5065788;28;20460;-70
2022/10/16 10:22:48;;;;;;;8.77;3.50;;;16.30;71.60;;;;;;5073410;28;20420;-74
2022/10/16 10:25:14;;;;;;;9.37;4.90;;;16.30;61.00;;;;;;5074148;28;20428;-71
2022/10/16 10:27:46;;;;;;;7.00;3.40;;;16.40;82.50;;;;;;5075874;28;20411;-75
2022/10/16 10:30:23;;;;;;;5.57;3.30;;;16.50;75.70;;;;;;5075847;28;20412;-70
2022/10/16 10:33:10;;;;;;;3.73;2.33;;;16.80;70.40;;;;;;5074573;28;20458;-71
2022/10/16 10:36:04;;;;;;;2.70;2.50;;;16.90;65.20;;;;;;5074461;28;20459;-70
2022/10/16 10:38:51;;;;;;;4.30;3.10;;;17.00;46.60;;;;;;5075657;28;20408;-74
2022/10/16 10:41:28;;;;;;;3.77;2.60;;;17.20;25.50;;;;;;5075750;28;20401;-70
2022/10/16 10:43:57;;;;;;;3.23;2.33;;;17.30;27.10;;;;;;5073849;28;20416;-69
2022/10/16 10:46:29;;;;;;;4.50;2.77;;;17.40;14.30;;;;;;5063005;28;20452;-74
2022/10/16 10:49:14;;;;;;;6.73;2.30;;;17.40;5.70;;;;;;5054367;28;20767;-75
2022/10/16 10:52:00;;;;;;;2.50;1.80;;;17.50;9.60;;;;;;5070232;28;20429;-74
2022/10/16 10:54:58;;;;;;;8.00;2.10;;;17.50;1.00;;;;;;5073315;28;20484;-75
2022/10/16 10:57:38;;;;;;;5.07;2.50;;;17.60;1.00;;;;;;5070195;28;20435;-74
2022/10/16 11:00:44;;;;;;;4.57;2.10;;;17.60;1.00;;;;;;5073549;28;20509;-75
2022/10/16 11:03:28;;;;;;;3.57;1.80;;;17.70;1.00;;;;;;5055232;28;20428;-73
2022/10/16 11:05:57;;;;;;;11.03;2.07;;;17.70;1.00;;;;;;5065520;28;20440;-74
2022/10/16 11:08:39;;;;;;;1.83;1.50;;;17.60;1.00;;;;;;5075226;28;20413;-69
2022/10/16 11:11:18;;;;;;;5.17;1.60;;;17.60;1.00;;;;;;5073804;28;20916;-74
2022/10/16 11:13:55;;;;;;;2.00;1.77;;;17.70;1.00;;;;;;5054061;28;20456;-76
2022/10/16 11:16:27;;;;;;;5.47;2.17;;;17.50;1.00;;;;;;5068449;28;20535;-68
2022/10/16 11:19:02;;;;;;;2.80;2.03;;;17.50;1.00;;;;;;5074806;28;20438;-69
2022/10/16 11:21:35;;;;;;;3.20;1.90;;;17.70;1.00;;;;;;5074697;28;20411;-70
2022/10/16 11:24:14;;;;;;;5.60;2.07;;;17.60;1.00;;;;;;5073834;28;20415;-73
2022/10/16 11:26:42;;;;;;;1.97;1.57;;;17.60;1.00;;;;;;5066450;28;20452;-72
2022/10/16 11:29:20;;;;;;;2.40;1.70;;;17.50;1.00;;;;;;5054848;28;20408;-74
2022/10/16 11:32:04;;;;;;;3.10;1.70;;;17.30;1.00;;;;;;5069815;28;20501;-75
2022/10/16 11:34:33;;;;;;;4.50;1.97;;;17.20;1.00;;;;;;5053272;28;20452;-74
2022/10/16 11:37:21;;;;;;;2.40;1.50;;;17.10;1.00;;;;;;5070696;28;20436;-75
2022/10/16 11:39:48;;;;;;;4.50;1.80;;;17.00;1.00;;;;;;5074602;28;20424;-70
2022/10/16 11:42:25;;;;;;;6.53;1.87;;;17.10;1.00;;;;;;5070011;28;20453;-71
2022/10/16 11:45:06;;;;;;;8.07;2.37;;;17.20;1.00;;;;;;5053652;28;20488;-70
2022/10/16 11:47:36;;;;;;;3.10;1.80;;;17.20;1.00;;;;;;5064610;28;20429;-70
2022/10/16 11:50:24;;;;;;;6.30;1.70;;;17.30;1.00;;;;;;5055992;28;20456;-72
2022/10/16 11:53:16;;;;;;;5.73;1.80;;;17.30;1.00;;;;;;5054262;28;20826;-74
2022/10/16 11:55:44;;;;;;;3.90;1.77;;;17.50;1.00;;;;;;5059740;28;20497;-73
2022/10/16 11:58:41;;;;;;;3.53;1.93;;;17.50;1.00;;;;;;5074226;28;20404;-71
2022/10/16 12:01:10;;;;;;;3.93;1.40;;;17.60;1.00;;;;;;5053207;28;20436;-71
2022/10/16 12:03:48;;;;;;;3.03;1.63;;;17.60;1.00;;;;;;5055706;28;20429;-76
2022/10/16 12:06:24;;;;;;;1.50;1.37;;;17.70;1.00;;;;;;5073978;28;20454;-72
2022/10/16 12:08:51;;;;;;;2.83;1.50;;;17.80;1.00;;;;;;5071550;28;20448;-68
2022/10/16 12:11:26;;;;;;;5.07;1.87;;;17.70;1.00;;;;;;5053620;28;20409;-67
2022/10/16 12:14:03;;;;;;;7.43;2.10;;;17.40;1.00;;;;;;5055803;28;21294;-69
2022/10/16 12:16:28;;;;;;;4.83;1.50;;;17.30;1.00;;;;;;5073223;28;20911;-73
2022/10/16 12:19:25;;;;;;;4.70;2.10;;;16.90;1.00;;;;;;5073614;28;20403;-67
2022/10/16 12:21:54;;;;;;;11.23;2.07;;;16.90;1.00;;;;;;5064423;28;20183;-70
2022/10/16 12:24:24;;;;;;;4.37;1.73;;;16.90;1.00;;;;;;5072372;28;20415;-73
2022/10/16 12:26:52;;;;;;;8.03;2.90;;;16.90;1.00;;;;;;5073607;28;20428;-72
2022/10/16 12:29:37;;;;;;;4.37;1.80;;;17.20;1.00;;;;;;5073150;28;20443;-69
2022/10/16 12:32:40;;;;;;;1.40;1.30;;;17.30;1.00;;;;;;5073712;28;20454;-68
2022/10/16 12:35:20;;;;;;;8.60;1.63;;;17.60;1.00;;;;;;5071883;28;20428;-73
2022/10/16 12:37:46;;;;;;;2.93;1.20;;;17.90;1.00;;;;;;5070234;28;20519;-68
2022/10/16 12:40:16;;;;;;;1.60;1.00;;;18.00;1.00;;;;;;5073458;28;20523;-71
2022/10/16 12:42:42;;;;;;;4.97;1.67;;;18.40;1.00;;;;;;5073211;28;20174;-69
2022/10/16 12:45:30;;;;;;;5.53;1.20;;;19.00;1.00;;;;;;5072605;28;20427;-67
2022/10/16 12:47:57;;;;;;;3.03;1.17;;;19.40;1.00;;;;;;5060543;28;20166;-73
2022/10/16 12:50:35;;;;;;;4.30;1.97;;;19.30;1.00;;;;;;5072182;28;20931;-68
2022/10/16 12:53:02;;;;;;;3.93;1.90;;;19.20;1.00;;;;;;5073202;28;20872;-69
2022/10/16 12:55:42;;;;;;;8.10;3.20;;;19.50;1.00;;;;;;5072414;28;20420;-71
2022/10/16 12:58:19;;;;;;;4.53;1.40;;;20.50;1.00;;;;;;5073202;28;20408;-72
2022/10/16 13:00:56;;;;;;;6.93;1.83;;;20.50;1.00;;;;;;5068738;28;20515;-72
2022/10/16 13:03:27;;;;;;;7.93;1.87;;;20.10;1.00;;;;;;5060590;28;20454;-73
2022/10/16 13:06:01;;;;;;;2.90;1.30;;;19.00;1.00;;;;;;5062935;28;20453;-68
2022/10/16 13:08:38;;;;;;;2.60;1.53;;;18.30;1.00;;;;;;5053270;28;20496;-69
2022/10/16 13:11:22;;;;;;;9.33;1.90;;;17.80;1.00;;;;;;5060241;28;20427;-71
2022/10/16 13:13:58;;;;;;;4.00;1.70;;;17.40;1.00;;;;;;5072388;28;20458;-72